createdAt,value
2019-04-06T11:29:21.311Z,87.80
2019-04-06T11:32:10.339Z,88.80
2019-04-06T11:35:01.335Z,88.10
2019-04-06T11:38:08.751Z,87.50
2019-04-06T11:41:00.139Z,86.20
2019-04-06T11:43:51.869Z,86.30
2019-04-06T11:46:41.240Z,87.90
2019-04-06T11:49:21.391Z,88.60
2019-04-06T11:51:58.992Z,88.70
2019-04-06T11:54:51.475Z,88.50
2019-04-06T11:57:47.981Z,87.60
2019-04-06T12:00:45.446Z,86.00
2019-04-06T12:03:30.822Z,87.80
2019-04-06T12:06:32.182Z,87.30
2019-04-06T12:09:19.594Z,87.00
2019-04-06T12:12:17.667Z,88.10
2019-04-06T12:14:59.865Z,88.00
2019-04-06T12:17:48.229Z,87.80
2019-04-06T12:20:39.307Z,87.10
2019-04-06T12:23:38.361Z,87.20
2019-04-06T12:26:27.814Z,87.20
2019-04-06T12:29:16.577Z,87.30
2019-04-06T12:32:06.531Z,85.40
2019-04-06T12:35:07.453Z,85.30
2019-04-06T12:37:44.378Z,84.00
2019-04-06T12:40:30.035Z,84.00
2019-04-06T12:43:24.913Z,82.30
2019-04-06T12:46:16.031Z,82.10
2019-04-06T12:49:04.449Z,82.70
2019-04-06T12:52:11.465Z,83.40
2019-04-06T12:55:06.786Z,80.80
2019-04-06T12:57:54.247Z,82.20
2019-04-06T13:00:51.211Z,81.90
2019-04-06T13:03:31.912Z,82.70
2019-04-06T13:06:33.702Z,82.80
2019-04-06T13:09:35.184Z,84.10
2019-04-06T13:12:11.619Z,83.40
2019-04-06T13:15:06.862Z,81.80
2019-04-06T13:17:43.775Z,81.40
2019-04-06T13:20:41.696Z,81.70
2019-04-06T13:23:30.739Z,82.10
2019-04-06T13:26:38.597Z,83.00
2019-04-06T13:29:46.543Z,85.10
2019-04-06T13:32:47.810Z,83.80
2019-04-06T13:35:36.777Z,82.80
2019-04-06T13:38:31.296Z,82.40
2019-04-06T13:41:23.515Z,84.50
2019-04-06T13:44:15.849Z,84.30
2019-04-06T13:46:57.337Z,83.30
2019-04-06T13:49:54.191Z,81.40
2019-04-06T13:52:45.211Z,81.50
2019-04-06T13:55:37.303Z,80.60
2019-04-06T13:58:15.947Z,81.70
2019-04-06T14:01:13.720Z,79.70
2019-04-06T14:03:46.800Z,79.70
2019-04-06T14:06:48.555Z,76.70
2019-04-06T14:09:27.763Z,77.60
2019-04-06T14:12:23.212Z,78.40
2019-04-06T14:15:00.295Z,78.30
2019-04-06T14:17:49.739Z,78.20
2019-04-06T14:20:57.179Z,76.80
2019-04-06T14:23:49.437Z,76.70
2019-04-06T14:26:35.164Z,78.50
2019-04-06T14:29:22.883Z,79.40
2019-04-06T14:32:30.380Z,80.10
2019-04-06T14:35:09.474Z,81.70
2019-04-06T14:37:58.037Z,81.40
2019-04-06T14:40:50.097Z,80.90
2019-04-06T14:43:31.514Z,82.00
2019-04-06T14:46:15.340Z,82.00
2019-04-06T14:49:28.894Z,82.20
2019-04-06T14:52:03.278Z,83.10
2019-04-06T14:54:49.079Z,84.70
2019-04-06T14:57:47.144Z,84.90
2019-04-06T15:00:34.278Z,84.60
2019-04-06T15:03:41.342Z,84.80
2019-04-06T15:06:34.234Z,84.80
2019-04-06T15:09:38.950Z,84.70
2019-04-06T15:12:23.941Z,83.70
2019-04-06T15:15:13.088Z,83.80
2019-04-06T15:18:07.857Z,82.30
2019-04-06T15:21:00.014Z,82.20
2019-04-06T15:23:44.299Z,81.80
2019-04-06T15:26:39.363Z,82.70
2019-04-06T15:29:31.517Z,83.60
2019-04-06T15:32:20.279Z,82.80
2019-04-06T15:35:10.243Z,83.50
2019-04-06T15:38:05.842Z,84.10
2019-04-06T15:40:43.972Z,84.40
2019-04-06T15:43:31.896Z,84.10
2019-04-06T15:46:20.137Z,84.70
2019-04-06T15:49:04.761Z,84.70
2019-04-06T15:52:11.401Z,84.50
2019-04-06T15:55:11.750Z,84.30
2019-04-06T15:58:06.904Z,84.20
2019-04-06T16:00:43.283Z,83.90
2019-04-06T16:03:32.202Z,83.40
2019-04-06T16:06:24.594Z,82.50
2019-04-06T16:09:12.110Z,82.40
2019-04-06T16:12:16.457Z,82.10
2019-04-06T16:14:59.743Z,80.90
2019-04-06T16:17:39.177Z,79.40
2019-04-06T16:20:17.560Z,80.90
2019-04-06T16:23:05.657Z,80.70
2019-04-06T16:25:53.477Z,80.10
2019-04-06T16:28:41.420Z,80.10
2019-04-06T16:31:30.879Z,78.90
2019-04-06T16:34:18.696Z,80.00
2019-04-06T16:37:07.478Z,78.80
2019-04-06T16:39:48.197Z,80.10
2019-04-06T16:42:40.835Z,81.10
2019-04-06T16:45:18.039Z,81.80
2019-04-06T16:47:53.122Z,82.20
2019-04-06T16:50:31.744Z,82.60
2019-04-06T16:53:14.998Z,84.20
2019-04-06T16:56:12.723Z,84.40
2019-04-06T16:59:01.722Z,84.60
2019-04-06T17:02:03.230Z,85.70
2019-04-06T17:04:44.948Z,86.20
2019-04-06T17:07:24.401Z,87.20
2019-04-06T17:10:12.733Z,88.20
2019-04-06T17:13:03.003Z,88.90
2019-04-06T17:15:45.960Z,90.20
2019-04-06T17:18:47.097Z,89.50
2019-04-06T17:21:36.483Z,90.20
2019-04-06T17:24:15.274Z,90.50
2019-04-06T17:27:22.483Z,91.00
2019-04-06T17:30:29.130Z,91.30
2019-04-06T17:33:14.337Z,91.20
2019-04-06T17:36:06.363Z,91.50
2019-04-06T17:38:43.175Z,91.90
2019-04-06T17:41:32.223Z,92.00
2019-04-06T17:44:39.199Z,92.20
2019-04-06T17:47:20.876Z,92.70
2019-04-06T17:50:15.583Z,93.90
2019-04-06T17:53:07.577Z,94.80
2019-04-06T17:56:00.014Z,94.50
2019-04-06T17:58:40.832Z,93.90
2019-04-06T18:01:33.233Z,94.50
2019-04-06T18:04:13.164Z,95.00
2019-04-06T18:07:08.194Z,95.50
2019-04-06T18:09:55.826Z,96.20
2019-04-06T18:12:33.546Z,96.60
2019-04-06T18:15:04.291Z,97.00
2019-04-06T18:17:34.916Z,97.20
2019-04-06T18:20:05.464Z,97.50
2019-04-06T18:22:35.832Z,97.80
2019-04-06T18:25:06.885Z,97.90
2019-04-06T18:27:37.252Z,97.90
2019-04-06T18:30:08.080Z,97.80
2019-04-06T18:33:03.749Z,97.90
2019-04-06T18:35:34.492Z,98.20
2019-04-06T18:38:24.199Z,98.30
2019-04-06T18:40:55.134Z,98.40
2019-04-06T18:43:25.179Z,98.70
2019-04-06T18:45:55.579Z,98.90
2019-04-06T18:48:25.982Z,99.10
2019-04-06T18:50:56.000Z,99.30
2019-04-06T18:53:26.345Z,99.60
2019-04-06T18:55:56.624Z,99.90
2019-04-06T18:58:26.915Z,99.90
2019-04-06T19:00:57.400Z,99.90
2019-04-06T19:03:27.937Z,99.90
2019-04-06T19:06:00.576Z,99.90
2019-04-06T19:08:31.032Z,99.90
2019-04-06T19:11:01.879Z,99.90
2019-04-06T19:13:31.934Z,99.90
2019-04-06T19:16:03.844Z,99.90
2019-04-06T19:18:35.104Z,99.90
2019-04-06T19:21:05.758Z,99.90
2019-04-06T19:23:35.858Z,99.90
2019-04-06T19:26:06.370Z,99.90
2019-04-06T19:28:37.207Z,99.90
2019-04-06T19:31:07.959Z,99.90
2019-04-06T19:33:38.206Z,99.90
2019-04-06T19:36:08.778Z,99.90
2019-04-06T19:38:39.186Z,99.90
2019-04-06T19:41:10.285Z,99.90
2019-04-06T19:43:40.098Z,99.90
2019-04-06T19:46:10.634Z,99.80
2019-04-06T19:48:41.608Z,99.50
2019-04-06T19:51:11.810Z,99.40
2019-04-06T19:53:42.352Z,99.50
2019-04-06T19:56:12.269Z,99.70
2019-04-06T19:58:42.669Z,99.90
2019-04-06T20:01:13.643Z,99.90
2019-04-06T20:03:44.580Z,99.90
2019-04-06T20:06:15.544Z,99.90
2019-04-06T20:08:45.631Z,99.90
2019-04-06T20:11:15.826Z,99.90
2019-04-06T20:13:46.543Z,99.90
2019-04-06T20:16:16.436Z,99.90
2019-04-06T20:18:47.694Z,99.90
2019-04-06T20:21:19.019Z,99.90
2019-04-06T20:23:49.680Z,99.90
2019-04-06T20:26:20.661Z,99.90
2019-04-06T20:28:51.283Z,99.90
2019-04-06T20:31:21.496Z,99.90
2019-04-06T20:33:53.310Z,99.90
2019-04-06T20:36:23.874Z,99.90
2019-04-06T20:38:55.392Z,99.90
2019-04-06T20:41:25.830Z,99.90
2019-04-06T20:43:55.150Z,99.90
2019-04-06T20:46:24.925Z,99.90
2019-04-06T20:48:55.464Z,99.90
2019-04-06T20:51:26.126Z,99.90
2019-04-06T20:53:56.763Z,99.90
2019-04-06T20:56:30.063Z,99.90
2019-04-06T20:59:00.172Z,99.90
2019-04-06T21:01:30.104Z,99.90
2019-04-06T21:04:02.847Z,99.90
2019-04-06T21:06:33.406Z,99.90
2019-04-06T21:09:05.517Z,99.90
2019-04-06T21:11:35.742Z,99.90
2019-04-06T21:14:05.477Z,99.90
2019-04-06T21:16:35.315Z,99.90
2019-04-06T21:19:05.000Z,99.90
2019-04-06T21:21:35.308Z,99.90
2019-04-06T21:24:05.307Z,99.90
2019-04-06T21:26:35.061Z,99.90
2019-04-06T21:29:05.151Z,99.90
2019-04-06T21:31:35.514Z,99.90
2019-04-06T21:34:11.999Z,99.90
2019-04-06T21:36:38.020Z,99.90
2019-04-06T21:39:08.529Z,99.90
2019-04-06T21:41:38.531Z,99.90
2019-04-06T21:44:08.544Z,99.90
2019-04-06T21:46:39.211Z,99.90
2019-04-06T21:49:09.548Z,99.90
2019-04-06T21:51:40.215Z,99.90
2019-04-06T21:54:10.347Z,99.90
2019-04-06T21:56:41.190Z,99.90
2019-04-06T21:59:12.108Z,99.90
2019-04-06T22:01:42.269Z,99.90
2019-04-06T22:04:23.028Z,99.90
2019-04-06T22:06:44.315Z,99.90
2019-04-06T22:09:14.550Z,99.90
2019-04-06T22:11:48.179Z,99.90
2019-04-06T22:14:18.030Z,99.90
2019-04-06T22:16:48.324Z,99.90
2019-04-06T22:19:18.875Z,99.90
2019-04-06T22:21:49.641Z,99.90
2019-04-06T22:24:20.450Z,99.90
2019-04-06T22:26:50.915Z,99.90
2019-04-06T22:29:22.206Z,99.90
2019-04-06T22:31:52.740Z,99.90
2019-04-06T22:34:34.057Z,99.90
2019-04-06T22:36:54.882Z,99.90
2019-04-06T22:39:25.963Z,99.90
2019-04-06T22:41:57.095Z,99.90
2019-04-06T22:44:27.170Z,99.90
2019-04-06T22:46:56.840Z,99.90
2019-04-06T22:49:27.435Z,99.90
2019-04-06T22:51:57.111Z,99.90
2019-04-06T22:54:27.636Z,99.90
2019-04-06T22:56:57.699Z,99.90
2019-04-06T22:59:27.477Z,99.90
2019-04-06T23:01:57.816Z,99.90
2019-04-06T23:04:48.594Z,99.90
2019-04-06T23:07:16.717Z,99.90
2019-04-06T23:09:47.124Z,99.90
2019-04-06T23:12:16.761Z,99.90
2019-04-06T23:14:47.760Z,99.90
2019-04-06T23:17:18.176Z,99.90
2019-04-06T23:19:48.622Z,99.90
2019-04-06T23:22:18.322Z,99.90
2019-04-06T23:24:48.444Z,99.90
2019-04-06T23:27:19.257Z,99.90
2019-04-06T23:29:49.640Z,99.90
2019-04-06T23:32:20.484Z,99.90
2019-04-06T23:34:58.765Z,99.90
2019-04-06T23:37:23.324Z,99.90
2019-04-06T23:39:52.657Z,99.90
2019-04-06T23:42:22.908Z,99.90
2019-04-06T23:44:53.192Z,99.90
2019-04-06T23:47:23.870Z,99.90
2019-04-06T23:49:54.227Z,99.90
2019-04-06T23:52:24.026Z,99.90
2019-04-06T23:54:54.577Z,99.90
2019-04-06T23:57:25.471Z,99.90
2019-04-06T23:59:55.823Z,99.90
